createdAt,value
2022-11-28T00:02:12.798Z,19.60
2022-11-28T00:11:04.777Z,22.95
2022-11-28T00:13:38.411Z,21.27
2022-11-28T00:16:13.976Z,20.50
2022-11-28T00:18:47.116Z,21.95
2022-11-28T00:21:19.783Z,20.90
2022-11-28T00:23:53.107Z,20.35
2022-11-28T00:26:27.364Z,20.67
2022-11-28T00:29:00.864Z,20.50
2022-11-28T00:31:34.763Z,19.83
2022-11-28T00:34:08.131Z,20.55
2022-11-28T00:36:40.776Z,20.27
2022-11-28T00:39:14.038Z,20.52
2022-11-28T00:41:46.593Z,18.83
2022-11-28T00:44:19.573Z,19.98
2022-11-28T00:46:52.092Z,19.98
2022-11-28T00:49:25.080Z,23.00
2022-11-28T00:51:57.659Z,19.83
2022-11-28T00:54:30.543Z,20.90
2022-11-28T00:57:03.041Z,20.27
2022-11-28T00:59:36.273Z,20.27
2022-11-28T01:02:09.225Z,19.75
2022-11-28T01:04:42.462Z,21.63
2022-11-28T01:07:15.214Z,20.13
2022-11-28T01:09:48.199Z,21.38
2022-11-28T01:12:20.685Z,20.63
2022-11-28T01:14:54.073Z,20.70
2022-11-28T01:17:26.608Z,20.73
2022-11-28T01:19:59.488Z,20.73
2022-11-28T01:22:32.056Z,20.40
2022-11-28T01:25:05.101Z,19.25
2022-11-28T01:27:37.617Z,20.83
2022-11-28T01:30:10.596Z,20.25
2022-11-28T01:32:43.093Z,20.02
2022-11-28T01:35:16.218Z,20.90
2022-11-28T01:37:48.785Z,20.73
2022-11-28T01:40:21.954Z,21.52
2022-11-28T01:42:54.459Z,21.50
2022-11-28T01:45:31.303Z,19.13
2022-11-28T01:48:04.465Z,20.20
2022-11-28T01:50:38.037Z,20.17
2022-11-28T01:53:11.333Z,20.27
2022-11-28T01:55:49.777Z,21.17
2022-11-28T01:58:23.208Z,20.58
2022-11-28T02:00:57.568Z,21.27
2022-11-28T02:03:59.581Z,21.07
2022-11-28T02:06:33.133Z,21.13
2022-11-28T02:09:07.469Z,20.20
2022-11-28T02:11:58.995Z,20.80
2022-11-28T02:14:41.232Z,20.53
2022-11-28T02:17:23.654Z,21.83
2022-11-28T02:20:14.972Z,20.53
2022-11-28T02:23:20.482Z,18.83
2022-11-28T02:26:04.991Z,22.60
2022-11-28T02:28:53.306Z,21.85
2022-11-28T02:31:39.269Z,20.25
2022-11-28T02:34:20.944Z,21.95
2022-11-28T02:37:01.388Z,22.70
2022-11-28T02:39:34.367Z,21.75
2022-11-28T02:42:16.258Z,23.73
2022-11-28T02:45:07.701Z,23.23
2022-11-28T02:47:43.280Z,22.15
2022-11-28T02:50:26.806Z,21.88
2022-11-28T02:53:07.798Z,21.65
2022-11-28T02:55:41.573Z,23.45
2022-11-28T02:58:14.224Z,21.90
2022-11-28T03:00:48.329Z,22.75
2022-11-28T03:03:39.807Z,22.27
2022-11-28T03:06:18.784Z,21.90
2022-11-28T03:09:01.250Z,23.10
2022-11-28T03:11:37.244Z,21.23
2022-11-28T03:14:16.038Z,21.50
2022-11-28T03:17:07.159Z,23.83
2022-11-28T03:19:54.318Z,22.37
2022-11-28T03:22:30.877Z,22.38
2022-11-28T03:25:03.788Z,20.65
2022-11-28T03:27:39.984Z,23.25
2022-11-28T03:30:22.460Z,19.35
2022-11-28T03:32:57.210Z,20.70
2022-11-28T03:35:32.293Z,21.73
2022-11-28T03:38:07.344Z,21.63
2022-11-28T03:40:43.027Z,21.23
2022-11-28T03:43:19.377Z,19.93
2022-11-28T03:47:12.008Z,18.77
2022-11-28T03:49:53.632Z,19.65
2022-11-28T03:52:28.539Z,20.02
2022-11-28T03:56:52.790Z,19.65
2022-11-28T03:59:29.355Z,20.20
2022-11-28T04:02:01.831Z,19.83
2022-11-28T04:04:43.688Z,19.60
2022-11-28T04:07:25.372Z,19.00
2022-11-28T04:09:58.442Z,18.65
2022-11-28T04:12:49.530Z,17.75
2022-11-28T04:15:25.250Z,18.77
2022-11-28T04:18:03.911Z,18.07
2022-11-28T04:20:41.110Z,17.73
2022-11-28T04:23:16.147Z,18.85
2022-11-28T04:25:58.484Z,18.55
2022-11-28T04:28:34.220Z,18.23
2022-11-28T04:31:08.493Z,17.80
2022-11-28T04:33:43.512Z,17.25
2022-11-28T04:36:18.116Z,17.67
2022-11-28T04:38:56.769Z,17.73
2022-11-28T04:41:34.684Z,18.23
2022-11-28T04:44:13.724Z,16.25
2022-11-28T04:46:48.948Z,19.25
2022-11-28T04:49:21.990Z,18.13
2022-11-28T04:52:06.883Z,16.83
2022-11-28T04:54:42.758Z,17.13
2022-11-28T04:57:35.583Z,18.00
2022-11-28T05:00:10.836Z,17.55
2022-11-28T05:02:44.598Z,17.30
2022-11-28T05:05:18.903Z,17.35
2022-11-28T05:07:52.561Z,17.00
2022-11-28T05:10:25.673Z,16.42
2022-11-28T05:12:58.525Z,14.95
2022-11-28T05:15:31.068Z,16.65
2022-11-28T05:18:04.384Z,18.08
2022-11-28T05:20:38.411Z,15.90
2022-11-28T05:23:11.406Z,15.50
2022-11-28T05:25:43.979Z,16.42
2022-11-28T05:28:16.892Z,16.03
2022-11-28T05:30:59.426Z,14.93
2022-11-28T05:33:32.965Z,14.85
2022-11-28T05:36:12.872Z,15.68
2022-11-28T05:38:46.488Z,15.98
2022-11-28T05:41:23.573Z,16.20
2022-11-28T05:43:57.106Z,15.20
2022-11-28T05:46:30.094Z,16.30
2022-11-28T05:49:03.151Z,15.60
2022-11-28T05:51:35.738Z,15.77
2022-11-28T05:54:08.784Z,14.98
2022-11-28T05:56:42.630Z,15.63
2022-11-28T05:59:15.943Z,16.30
2022-11-28T06:01:48.443Z,15.45
2022-11-28T06:04:22.786Z,14.73
2022-11-28T06:06:55.358Z,13.95
2022-11-28T06:09:28.461Z,12.93
2022-11-28T06:12:00.986Z,13.05
2022-11-28T06:14:34.016Z,13.73
2022-11-28T06:17:06.979Z,13.90
2022-11-28T06:19:39.984Z,13.85
2022-11-28T06:22:12.736Z,13.55
2022-11-28T06:24:45.637Z,13.50
2022-11-28T06:27:18.152Z,13.85
2022-11-28T06:29:51.278Z,14.10
2022-11-28T06:32:23.806Z,15.10
2022-11-28T06:34:56.690Z,14.23
2022-11-28T06:37:29.255Z,15.10
2022-11-28T06:40:02.293Z,15.73
2022-11-28T06:42:36.366Z,15.80
2022-11-28T06:45:09.919Z,14.23
2022-11-28T06:47:42.560Z,14.13
2022-11-28T06:50:15.622Z,13.10
2022-11-28T06:52:48.249Z,15.80
2022-11-28T06:55:21.207Z,16.08
2022-11-28T06:57:53.974Z,15.60
2022-11-28T07:00:27.323Z,15.43
2022-11-28T07:02:59.994Z,14.93
2022-11-28T07:05:33.866Z,15.23
2022-11-28T07:08:06.708Z,14.88
2022-11-28T07:10:39.640Z,15.27
2022-11-28T07:13:12.190Z,17.02
2022-11-28T07:15:51.712Z,17.50
2022-11-28T07:18:24.527Z,15.95
2022-11-28T07:20:57.794Z,15.75
2022-11-28T07:23:30.368Z,17.90
2022-11-28T07:26:04.159Z,16.00
2022-11-28T07:28:37.414Z,16.75
2022-11-28T07:31:14.838Z,16.17
2022-11-28T07:33:48.880Z,16.42
2022-11-28T07:36:23.815Z,15.75
2022-11-28T07:39:00.814Z,16.70
2022-11-28T07:41:33.785Z,17.57
2022-11-28T07:44:06.530Z,16.93
2022-11-28T07:46:39.743Z,17.83
2022-11-28T07:49:13.256Z,19.05
2022-11-28T07:51:46.192Z,17.10
2022-11-28T07:54:18.722Z,18.25
2022-11-28T07:59:44.760Z,16.42
2022-11-28T08:02:17.960Z,17.55
2022-11-28T08:04:55.120Z,17.27
2022-11-28T08:07:28.400Z,18.20
2022-11-28T08:10:01.210Z,15.60
2022-11-28T08:12:34.209Z,16.25
2022-11-28T08:15:06.889Z,15.75
2022-11-28T08:17:39.926Z,15.02
2022-11-28T08:20:12.612Z,16.02
2022-11-28T08:22:45.470Z,16.27
2022-11-28T08:25:17.981Z,14.95
2022-11-28T08:27:50.952Z,14.57
2022-11-28T08:30:23.668Z,16.17
2022-11-28T08:32:56.543Z,15.40
2022-11-28T08:35:29.289Z,14.87
2022-11-28T08:38:02.337Z,15.18
2022-11-28T08:40:34.869Z,14.70
2022-11-28T08:43:08.476Z,15.68
2022-11-28T08:45:41.092Z,14.15
2022-11-28T08:48:14.282Z,14.70
2022-11-28T08:50:48.252Z,15.07
2022-11-28T08:53:21.220Z,14.50
2022-11-28T08:55:53.782Z,14.48
2022-11-28T08:58:26.946Z,13.03
2022-11-28T09:00:59.597Z,15.03
2022-11-28T09:03:32.680Z,14.73
2022-11-28T09:06:05.295Z,14.23
2022-11-28T09:08:38.301Z,13.70
2022-11-28T09:11:12.193Z,15.25
2022-11-28T09:13:45.200Z,13.90
2022-11-28T09:16:18.726Z,14.55
2022-11-28T09:18:51.701Z,13.50
2022-11-28T09:21:24.260Z,13.23
2022-11-28T09:23:57.271Z,13.98
2022-11-28T09:29:22.192Z,15.15
2022-11-28T09:31:55.323Z,14.65
2022-11-28T09:34:28.480Z,15.63
2022-11-28T09:37:04.833Z,15.38
2022-11-28T09:39:57.070Z,15.18
2022-11-28T09:42:30.694Z,14.50
2022-11-28T09:45:05.555Z,14.43
2022-11-28T09:47:40.721Z,14.63
2022-11-28T09:50:17.000Z,13.98
2022-11-28T09:53:00.349Z,14.38
2022-11-28T09:55:33.197Z,13.18
2022-11-28T09:58:10.647Z,13.93
2022-11-28T10:01:05.907Z,14.32
2022-11-28T10:03:41.591Z,14.93
2022-11-28T10:06:14.291Z,13.73
2022-11-28T10:09:07.464Z,14.25
2022-11-28T10:11:58.633Z,14.60
2022-11-28T10:14:50.384Z,14.23
2022-11-28T10:17:29.032Z,14.75
2022-11-28T10:20:20.383Z,15.37
2022-11-28T10:22:58.241Z,14.82
2022-11-28T10:25:34.506Z,14.50
2022-11-28T10:28:13.415Z,14.03
2022-11-28T10:30:53.327Z,13.88
2022-11-28T10:33:29.637Z,15.65
2022-11-28T10:36:03.676Z,14.40
2022-11-28T10:38:40.984Z,14.73
2022-11-28T10:41:46.404Z,15.55
2022-11-28T10:44:23.502Z,13.95
2022-11-28T10:46:59.405Z,14.65
2022-11-28T10:49:35.372Z,12.67
2022-11-28T10:52:13.687Z,13.73
2022-11-28T10:54:46.684Z,14.23
2022-11-28T10:57:29.332Z,11.57
2022-11-28T11:00:04.647Z,11.95
2022-11-28T11:02:46.297Z,12.55
2022-11-28T11:05:20.561Z,13.15
2022-11-28T11:07:58.294Z,10.70
2022-11-28T11:10:34.103Z,10.75
2022-11-28T11:13:27.423Z,12.20
2022-11-28T11:16:10.766Z,11.05
2022-11-28T11:18:43.699Z,11.30
2022-11-28T11:21:24.018Z,11.13
2022-11-28T11:24:16.116Z,12.07
2022-11-28T11:26:49.226Z,16.20
2022-11-28T11:29:28.458Z,15.80
2022-11-28T11:32:04.232Z,14.73
2022-11-28T11:34:43.047Z,11.88
2022-11-28T11:37:35.656Z,11.40
2022-11-28T11:40:30.063Z,11.20
2022-11-28T11:43:02.665Z,14.15
2022-11-28T11:45:40.847Z,12.57
2022-11-28T11:48:14.553Z,12.45
2022-11-28T11:50:54.047Z,12.88
2022-11-28T11:53:26.593Z,11.13
2022-11-28T11:56:01.312Z,11.27
2022-11-28T11:58:43.812Z,14.70
2022-11-28T12:01:18.378Z,12.48
2022-11-28T12:03:55.458Z,12.52
2022-11-28T12:06:30.242Z,11.75
2022-11-28T12:09:02.819Z,11.70
2022-11-28T12:11:47.270Z,10.85
2022-11-28T12:14:30.932Z,12.77
2022-11-28T12:17:46.911Z,10.95
2022-11-28T12:20:21.895Z,10.50
2022-11-28T12:23:17.378Z,12.60
2022-11-28T12:25:55.970Z,12.00
2022-11-28T12:28:32.051Z,11.70
2022-11-28T12:31:30.908Z,10.83
2022-11-28T12:34:10.497Z,11.38
2022-11-28T12:36:43.093Z,11.93
2022-11-28T12:39:30.670Z,11.10
2022-11-28T12:42:28.140Z,12.38
2022-11-28T12:45:01.407Z,10.50
2022-11-28T12:48:09.433Z,10.00
2022-11-28T12:50:44.245Z,9.25
2022-11-28T12:53:25.793Z,9.77
2022-11-28T12:55:58.763Z,10.98
2022-11-28T12:58:35.889Z,10.55
2022-11-28T13:01:26.914Z,10.80
2022-11-28T13:04:17.914Z,10.35
2022-11-28T13:07:07.641Z,10.13
2022-11-28T13:09:59.203Z,9.68
2022-11-28T13:12:51.048Z,10.57
2022-11-28T13:15:33.795Z,11.63
2022-11-28T13:18:25.223Z,11.27
2022-11-28T13:21:11.436Z,10.87
2022-11-28T13:23:53.626Z,10.40
2022-11-28T13:26:29.207Z,10.27
2022-11-28T13:29:06.185Z,9.40
2022-11-28T13:31:44.634Z,9.10
2022-11-28T13:34:18.615Z,8.10
2022-11-28T13:40:02.261Z,9.70
2022-11-28T13:43:08.941Z,9.32
2022-11-28T13:49:13.061Z,9.18
2022-11-28T13:51:32.105Z,8.32
2022-11-28T13:54:19.368Z,8.10
2022-11-28T13:57:04.603Z,7.40
2022-11-28T13:59:38.373Z,7.68
2022-11-28T14:02:24.149Z,8.55
2022-11-28T14:04:57.219Z,6.68
2022-11-28T14:07:31.239Z,6.70
2022-11-28T14:10:13.716Z,7.45
2022-11-28T14:12:46.795Z,7.23
2022-11-28T14:15:26.646Z,8.35
2022-11-28T14:18:54.541Z,7.40
2022-11-28T14:21:20.459Z,8.57
2022-11-28T14:23:53.369Z,9.25
2022-11-28T14:26:35.351Z,9.25
2022-11-28T14:29:19.995Z,9.40
2022-11-28T14:32:28.022Z,8.65
2022-11-28T14:34:49.995Z,9.45
2022-11-28T14:37:24.996Z,9.90
2022-11-28T14:39:58.222Z,9.47
2022-11-28T14:45:30.108Z,8.43
2022-11-28T14:48:21.713Z,8.30
2022-11-28T14:51:00.970Z,8.43
2022-11-28T14:53:46.026Z,8.80
2022-11-28T14:56:26.612Z,7.20
2022-11-28T14:59:02.128Z,7.60
2022-11-28T15:01:41.816Z,8.63
2022-11-28T15:04:15.017Z,9.95
2022-11-28T15:06:50.566Z,10.00
2022-11-28T15:09:47.690Z,12.18
2022-11-28T15:12:23.638Z,12.38
2022-11-28T15:15:02.876Z,15.02
2022-11-28T15:17:35.899Z,15.07
2022-11-28T15:20:17.008Z,13.00
2022-11-28T15:22:50.472Z,13.07
2022-11-28T15:25:29.853Z,12.77
2022-11-28T15:28:17.192Z,12.18
2022-11-28T15:30:51.337Z,12.23
2022-11-28T15:33:27.625Z,13.02
2022-11-28T15:36:01.811Z,11.97
2022-11-28T15:38:36.038Z,14.23
2022-11-28T15:41:08.707Z,13.48
2022-11-28T15:43:44.437Z,12.38
2022-11-28T15:46:21.141Z,13.55
2022-11-28T15:48:54.246Z,13.65
2022-11-28T15:51:31.125Z,13.88
2022-11-28T15:54:24.338Z,12.70
2022-11-28T15:56:57.686Z,13.73
2022-11-28T15:59:31.160Z,13.65
2022-11-28T16:02:13.571Z,13.43
2022-11-28T16:04:46.912Z,12.75
2022-11-28T16:07:19.532Z,13.73
2022-11-28T16:10:00.363Z,14.98
2022-11-28T16:12:33.270Z,15.05
2022-11-28T16:15:06.529Z,14.38
2022-11-28T16:17:39.555Z,31.15
2022-11-28T16:20:23.982Z,23.27
2022-11-28T16:22:57.546Z,20.75
2022-11-28T16:25:30.809Z,21.48
2022-11-28T16:28:03.436Z,17.27
2022-11-28T16:30:37.497Z,18.55
2022-11-28T16:33:28.503Z,17.17
2022-11-28T16:36:11.639Z,21.45
2022-11-28T16:38:44.665Z,25.40
2022-11-28T16:41:25.551Z,25.77
2022-11-28T16:44:02.819Z,22.05
2022-11-28T16:46:37.621Z,15.45
2022-11-28T16:49:30.141Z,14.95
2022-11-28T16:55:02.272Z,12.80
2022-11-28T16:57:45.917Z,13.38
2022-11-28T17:00:18.784Z,11.30
2022-11-28T17:02:52.975Z,28.23
2022-11-28T17:05:26.719Z,19.02
2022-11-28T17:08:01.823Z,15.60
2022-11-28T17:10:34.346Z,18.65
2022-11-28T17:13:07.311Z,18.92
2022-11-28T17:15:39.800Z,17.67
2022-11-28T17:18:12.748Z,16.93
2022-11-28T17:20:45.701Z,17.05
2022-11-28T17:23:27.623Z,12.05
2022-11-28T17:26:00.099Z,11.10
2022-11-28T17:28:33.138Z,11.10
2022-11-28T17:31:06.066Z,12.85
2022-11-28T17:33:44.272Z,16.23
2022-11-28T17:36:17.460Z,13.68
2022-11-28T17:38:50.573Z,15.25
2022-11-28T17:41:23.770Z,17.50
2022-11-28T17:43:56.710Z,16.50
2022-11-28T17:46:29.292Z,20.33
2022-11-28T17:49:03.171Z,19.73
2022-11-28T18:02:57.961Z,21.97
2022-11-28T18:05:32.032Z,20.17
2022-11-28T18:08:04.773Z,21.88
2022-11-28T18:10:41.683Z,20.35
2022-11-28T18:13:16.650Z,22.27
2022-11-28T18:15:53.624Z,22.00
2022-11-28T18:18:26.338Z,21.25
2022-11-28T18:20:59.257Z,20.13
2022-11-28T18:23:31.912Z,17.90
2022-11-28T18:26:24.379Z,21.20
2022-11-28T18:28:57.222Z,23.00
2022-11-28T18:31:30.583Z,17.30
2022-11-28T18:34:05.012Z,22.15
2022-11-28T18:36:40.537Z,23.25
2022-11-28T18:42:08.361Z,21.20
2022-11-28T18:44:41.400Z,22.20
2022-11-28T18:47:15.083Z,26.27
2022-11-28T18:49:48.105Z,20.88
2022-11-28T18:52:20.654Z,19.15
2022-11-28T18:54:54.148Z,17.07
2022-11-28T18:57:31.418Z,19.77
2022-11-28T19:00:05.784Z,17.75
2022-11-28T19:02:38.866Z,18.33
2022-11-28T19:05:12.010Z,15.50
2022-11-28T19:07:44.663Z,15.50
2022-11-28T19:10:18.301Z,14.88
2022-11-28T19:12:50.875Z,15.07
2022-11-28T19:15:23.845Z,13.90
2022-11-28T19:17:56.602Z,13.57
2022-11-28T19:20:29.555Z,11.95
2022-11-28T19:23:02.163Z,14.80
2022-11-28T19:25:35.390Z,15.52
2022-11-28T19:28:08.013Z,13.20
2022-11-28T19:30:40.974Z,14.05
2022-11-28T23:50:56.241Z,14.38
2022-11-28T23:53:30.672Z,12.43
2022-11-28T23:56:04.208Z,13.05
2022-11-28T23:58:37.447Z,13.45
